Sunday, November 18, 2018, 10:02 AM EST
Back to Local

KIPT, Williamsport-lycoming County

Location: Montoursville, PA, United States Lat: 41.25
Local Time: 10:02 AM EST (15:02 GMT) Lon: -76.917
Time Zone: US/Eastern Elev: 528 ft

Show me the last for .
Show Coded

Time T Td Feel RH Dir Speed Gust Alt SLP Vis Weather Sky Remarks
2018-11-18 08:54 35 31 - 84 - Calm - 30.33 30.35 10 OVC050 None
2018-11-18 07:54 34 32 - 92 - Calm - 30.34 30.35 10 BKN055 OVC085 None
2018-11-18 06:54 34 31 - 88 - Calm - 30.33 30.34 10 FEW040 FEW065 OVC090 6-hr Min Temp (7am): 33.1°F
6-hr Max Temp (7am): 36.0°F
2018-11-18 06:23 33 32 - 95 - Calm - 30.33 - 10 FEW006 BKN090 OVC120 None
2018-11-18 05:54 34 31 31 88 350° 3 - 30.32 30.33 10 BKN100 None
2018-11-18 04:54 34 32 - 92 - Calm - 30.31 30.32 10 FEW070 OVC085 None
2018-11-18 03:54 34 32 - 92 - Calm - 30.31 30.32 9 FEW036 OVC075 None
2018-11-18 02:54 35 32 - 88 - Calm - 30.30 30.31 10 OVC035 None
2018-11-18 01:54 35 33 - 92 - Calm - 30.31 30.32 10 OVC035 None
2018-11-18 00:54 36 32 - 85 - Calm - 30.31 30.32 10 OVC038 6-hr Min Temp (1am): 36.0°F
6-hr Max Temp (1am): 39.0°F
2018-11-17 23:54 37 31 32 78 270° 7 - 30.31 30.32 10 OVC040 24-hr Min Temp (12am): 36.0°F
24-hr Max Temp (12am): 41.0°F
2018-11-17 23:10 37 32 32 81 250° 7 - 30.30 - 10 SCT024 OVC040 None
2018-11-17 22:54 37 32 - 81 - Calm - 30.31 30.32 10 SCT021 BKN026 OVC042 None
2018-11-17 21:54 37 32 32 81 270° 6 - 30.29 30.30 10 OVC045 None
2018-11-17 19:54 38 32 31 78 280° 9 - 30.27 30.28 10 OVC046 None
2018-11-17 18:54 39 32 33 75 280° 8 - 30.26 30.27 10 FEW029 FEW036 OVC045 6-hr Min Temp (7pm): 37.9°F
6-hr Max Temp (7pm): 41.0°F
2018-11-17 17:54 38 31 33 75 290° 7 - 30.24 30.25 10 BKN044 None
2018-11-17 16:54 40 31 34 69 270° 8 - 30.24 30.25 10 OVC041 None
2018-11-17 15:54 40 31 33 69 270° 10 - 30.22 30.23 10 OVC041 None
2018-11-17 14:54 40 31 34 69 270° 9 - 30.20 30.21 10 OVC036 None
2018-11-17 13:54 40 31 33 69 260° 12 - 30.19 30.20 10 BKN033 OVC041 None
2018-11-17 12:54 41 31 34 67 270° 13 - 30.18 30.19 10 SCT032 OVC042 6-hr Min Temp (1pm): 37.9°F
6-hr Max Temp (1pm): 41.0°F
2018-11-17 11:54 40 31 33 69 270° 12 - 30.19 30.20 10 BKN032 OVC041 None
2018-11-17 10:54 40 31 33 69 270° 12 - 30.20 30.21 10 OVC039 None

Support USWX by starting your Amazon purchase here.